sensor_id;sensor_type;location;lat;lon;timestamp;P1;durP1;ratioP1;P2;durP2;ratioP2
45368;SDS011;51342;55.250;37.668;2023-03-01T00:03:48;5.40;;;1.47;;
45368;SDS011;51342;55.250;37.668;2023-03-01T00:06:21;2.93;;;1.10;;
45368;SDS011;51342;55.250;37.668;2023-03-01T00:08:53;2.77;;;0.80;;
45368;SDS011;51342;55.250;37.668;2023-03-01T00:11:35;3.20;;;0.90;;
45368;SDS011;51342;55.250;37.668;2023-03-01T00:14:10;4.90;;;0.60;;
45368;SDS011;51342;55.250;37.668;2023-03-01T00:16:45;3.30;;;0.60;;
45368;SDS011;51342;55.250;37.668;2023-03-01T00:19:18;2.27;;;0.50;;
45368;SDS011;51342;55.250;37.668;2023-03-01T00:21:51;2.13;;;0.40;;
45368;SDS011;51342;55.250;37.668;2023-03-01T00:24:32;1.47;;;0.60;;
45368;SDS011;51342;55.250;37.668;2023-03-01T00:27:10;2.53;;;0.50;;
45368;SDS011;51342;55.250;37.668;2023-03-01T00:29:48;1.57;;;0.70;;
45368;SDS011;51342;55.250;37.668;2023-03-01T00:32:23;2.53;;;0.40;;
45368;SDS011;51342;55.250;37.668;2023-03-01T00:34:55;1.63;;;0.67;;
45368;SDS011;51342;55.250;37.668;2023-03-01T00:37:29;3.30;;;0.90;;
45368;SDS011;51342;55.250;37.668;2023-03-01T00:40:01;1.87;;;0.43;;
45368;SDS011;51342;55.250;37.668;2023-03-01T00:42:37;2.77;;;0.40;;
45368;SDS011;51342;55.250;37.668;2023-03-01T00:45:09;1.53;;;0.30;;
45368;SDS011;51342;55.250;37.668;2023-03-01T00:47:42;1.60;;;0.50;;
45368;SDS011;51342;55.250;37.668;2023-03-01T00:50:14;3.60;;;0.60;;
45368;SDS011;51342;55.250;37.668;2023-03-01T00:52:46;2.83;;;0.83;;
45368;SDS011;51342;55.250;37.668;2023-03-01T00:55:18;0.97;;;0.53;;
45368;SDS011;51342;55.250;37.668;2023-03-01T00:57:50;0.90;;;0.37;;
45368;SDS011;51342;55.250;37.668;2023-03-01T01:00:22;3.70;;;0.50;;
45368;SDS011;51342;55.250;37.668;2023-03-01T01:02:54;2.27;;;0.67;;
45368;SDS011;51342;55.250;37.668;2023-03-01T01:05:26;1.30;;;0.37;;
45368;SDS011;51342;55.250;37.668;2023-03-01T01:08:00;2.83;;;0.50;;
45368;SDS011;51342;55.250;37.668;2023-03-01T01:10:35;1.73;;;0.60;;
45368;SDS011;51342;55.250;37.668;2023-03-01T01:13:07;1.10;;;0.30;;
45368;SDS011;51342;55.250;37.668;2023-03-01T01:15:42;0.97;;;0.30;;
45368;SDS011;51342;55.250;37.668;2023-03-01T01:18:14;1.90;;;0.40;;
45368;SDS011;51342;55.250;37.668;2023-03-01T01:20:49;1.57;;;0.40;;
45368;SDS011;51342;55.250;37.668;2023-03-01T01:23:21;0.70;;;0.40;;
45368;SDS011;51342;55.250;37.668;2023-03-01T01:25:53;2.30;;;0.40;;
45368;SDS011;51342;55.250;37.668;2023-03-01T01:28:25;2.20;;;0.30;;
45368;SDS011;51342;55.250;37.668;2023-03-01T01:31:01;1.27;;;0.80;;
45368;SDS011;51342;55.250;37.668;2023-03-01T01:33:37;1.07;;;0.40;;
45368;SDS011;51342;55.250;37.668;2023-03-01T01:36:09;0.80;;;0.30;;
45368;SDS011;51342;55.250;37.668;2023-03-01T01:38:41;0.83;;;0.30;;
45368;SDS011;51342;55.250;37.668;2023-03-01T01:41:13;1.23;;;0.40;;
45368;SDS011;51342;55.250;37.668;2023-03-01T01:43:48;1.13;;;0.40;;
45368;SDS011;51342;55.250;37.668;2023-03-01T01:46:50;0.30;;;0.20;;
45368;SDS011;51342;55.250;37.668;2023-03-01T01:49:48;2.87;;;0.37;;
45368;SDS011;51342;55.250;37.668;2023-03-01T01:52:23;1.03;;;0.60;;
45368;SDS011;51342;55.250;37.668;2023-03-01T01:55:04;4.57;;;0.93;;
45368;SDS011;51342;55.250;37.668;2023-03-01T01:57:49;0.50;;;0.30;;
45368;SDS011;51342;55.250;37.668;2023-03-01T02:00:26;1.87;;;0.37;;
45368;SDS011;51342;55.250;37.668;2023-03-01T02:03:03;3.77;;;0.47;;
45368;SDS011;51342;55.250;37.668;2023-03-01T02:08:33;3.53;;;0.60;;
45368;SDS011;51342;55.250;37.668;2023-03-01T02:11:17;1.83;;;0.40;;
45368;SDS011;51342;55.250;37.668;2023-03-01T02:13:52;2.93;;;0.87;;
45368;SDS011;51342;55.250;37.668;2023-03-01T02:16:31;3.80;;;0.30;;
45368;SDS011;51342;55.250;37.668;2023-03-01T02:19:06;1.27;;;0.47;;
45368;SDS011;51342;55.250;37.668;2023-03-01T02:27:14;2.73;;;0.30;;
45368;SDS011;51342;55.250;37.668;2023-03-01T02:29:48;2.53;;;0.67;;
45368;SDS011;51342;55.250;37.668;2023-03-01T02:32:20;1.37;;;0.30;;
45368;SDS011;51342;55.250;37.668;2023-03-01T02:34:56;2.47;;;0.30;;
45368;SDS011;51342;55.250;37.668;2023-03-01T02:37:28;1.23;;;0.50;;
45368;SDS011;51342;55.250;37.668;2023-03-01T02:40:02;1.23;;;0.40;;
45368;SDS011;51342;55.250;37.668;2023-03-01T02:42:40;0.47;;;0.40;;
45368;SDS011;51342;55.250;37.668;2023-03-01T02:45:28;1.47;;;0.50;;
45368;SDS011;51342;55.250;37.668;2023-03-01T02:48:07;1.77;;;0.47;;
45368;SDS011;51342;55.250;37.668;2023-03-01T02:50:44;1.33;;;0.40;;
45368;SDS011;51342;55.250;37.668;2023-03-01T02:53:58;2.83;;;0.70;;
45368;SDS011;51342;55.250;37.668;2023-03-01T02:57:02;2.10;;;0.40;;
45368;SDS011;51342;55.250;37.668;2023-03-01T02:59:41;2.53;;;0.40;;
45368;SDS011;51342;55.250;37.668;2023-03-01T03:02:21;2.83;;;0.50;;
45368;SDS011;51342;55.250;37.668;2023-03-01T03:05:21;1.33;;;0.30;;
45368;SDS011;51342;55.250;37.668;2023-03-01T03:11:00;1.50;;;0.47;;
45368;SDS011;51342;55.250;37.668;2023-03-01T03:13:35;4.07;;;0.40;;
45368;SDS011;51342;55.250;37.668;2023-03-01T03:16:22;1.70;;;0.50;;
45368;SDS011;51342;55.250;37.668;2023-03-01T03:19:04;3.33;;;0.40;;
45368;SDS011;51342;55.250;37.668;2023-03-01T03:21:54;3.35;;;0.38;;
45368;SDS011;51342;55.250;37.668;2023-03-01T03:24:34;3.43;;;0.60;;
45368;SDS011;51342;55.250;37.668;2023-03-01T03:27:12;1.40;;;0.30;;
45368;SDS011;51342;55.250;37.668;2023-03-01T03:29:51;3.37;;;0.30;;
45368;SDS011;51342;55.250;37.668;2023-03-01T03:32:23;2.97;;;0.53;;
45368;SDS011;51342;55.250;37.668;2023-03-01T03:35:01;2.13;;;0.43;;
45368;SDS011;51342;55.250;37.668;2023-03-01T03:37:56;1.10;;;0.37;;
45368;SDS011;51342;55.250;37.668;2023-03-01T03:40:39;2.10;;;0.50;;
45368;SDS011;51342;55.250;37.668;2023-03-01T03:43:16;2.53;;;0.43;;
45368;SDS011;51342;55.250;37.668;2023-03-01T03:45:50;1.53;;;0.40;;
45368;SDS011;51342;55.250;37.668;2023-03-01T03:48:30;1.03;;;0.30;;
45368;SDS011;51342;55.250;37.668;2023-03-01T03:51:06;2.07;;;0.50;;
45368;SDS011;51342;55.250;37.668;2023-03-01T03:53:43;1.90;;;0.47;;
45368;SDS011;51342;55.250;37.668;2023-03-01T03:56:26;3.90;;;0.40;;
45368;SDS011;51342;55.250;37.668;2023-03-01T03:59:05;2.97;;;0.50;;
45368;SDS011;51342;55.250;37.668;2023-03-01T04:01:44;4.40;;;1.10;;
45368;SDS011;51342;55.250;37.668;2023-03-01T04:04:17;1.40;;;0.40;;
45368;SDS011;51342;55.250;37.668;2023-03-01T04:06:49;3.33;;;0.30;;
45368;SDS011;51342;55.250;37.668;2023-03-01T04:09:24;0.83;;;0.43;;
45368;SDS011;51342;55.250;37.668;2023-03-01T04:12:01;1.37;;;0.30;;
45368;SDS011;51342;55.250;37.668;2023-03-01T04:14:33;0.97;;;0.27;;
45368;SDS011;51342;55.250;37.668;2023-03-01T04:17:08;0.93;;;0.30;;
45368;SDS011;51342;55.250;37.668;2023-03-01T04:19:46;1.97;;;0.40;;
45368;SDS011;51342;55.250;37.668;2023-03-01T04:22:19;1.27;;;0.53;;
45368;SDS011;51342;55.250;37.668;2023-03-01T04:24:51;1.00;;;0.33;;
45368;SDS011;51342;55.250;37.668;2023-03-01T04:27:23;3.97;;;0.57;;
45368;SDS011;51342;55.250;37.668;2023-03-01T04:29:55;0.67;;;0.50;;
45368;SDS011;51342;55.250;37.668;2023-03-01T04:32:30;1.27;;;0.37;;
45368;SDS011;51342;55.250;37.668;2023-03-01T04:35:12;2.03;;;0.73;;
45368;SDS011;51342;55.250;37.668;2023-03-01T04:37:53;2.97;;;0.57;;
45368;SDS011;51342;55.250;37.668;2023-03-01T04:40:25;4.07;;;0.60;;
45368;SDS011;51342;55.250;37.668;2023-03-01T04:42:57;1.60;;;0.70;;
45368;SDS011;51342;55.250;37.668;2023-03-01T04:45:29;2.93;;;0.53;;
45368;SDS011;51342;55.250;37.668;2023-03-01T04:48:08;2.90;;;0.47;;
45368;SDS011;51342;55.250;37.668;2023-03-01T04:50:40;1.07;;;0.50;;
45368;SDS011;51342;55.250;37.668;2023-03-01T04:53:11;2.20;;;0.53;;
45368;SDS011;51342;55.250;37.668;2023-03-01T04:55:50;3.43;;;0.60;;
45368;SDS011;51342;55.250;37.668;2023-03-01T05:01:50;2.03;;;0.40;;
45368;SDS011;51342;55.250;37.668;2023-03-01T05:17:01;2.80;;;0.53;;
45368;SDS011;51342;55.250;37.668;2023-03-01T05:19:34;0.70;;;0.40;;
45368;SDS011;51342;55.250;37.668;2023-03-01T05:22:06;1.37;;;0.37;;
45368;SDS011;51342;55.250;37.668;2023-03-01T05:24:37;1.00;;;0.30;;
45368;SDS011;51342;55.250;37.668;2023-03-01T05:27:09;3.23;;;0.70;;
45368;SDS011;51342;55.250;37.668;2023-03-01T05:29:40;2.13;;;0.73;;
45368;SDS011;51342;55.250;37.668;2023-03-01T05:32:12;3.43;;;1.07;;
45368;SDS011;51342;55.250;37.668;2023-03-01T05:34:46;1.90;;;0.50;;
45368;SDS011;51342;55.250;37.668;2023-03-01T05:37:17;1.53;;;0.40;;
45368;SDS011;51342;55.250;37.668;2023-03-01T05:39:50;1.90;;;0.93;;
45368;SDS011;51342;55.250;37.668;2023-03-01T05:42:22;1.53;;;0.77;;
45368;SDS011;51342;55.250;37.668;2023-03-01T05:44:53;2.30;;;0.50;;
45368;SDS011;51342;55.250;37.668;2023-03-01T05:47:25;3.73;;;0.57;;
45368;SDS011;51342;55.250;37.668;2023-03-01T05:49:56;2.03;;;0.50;;
45368;SDS011;51342;55.250;37.668;2023-03-01T05:52:28;2.20;;;0.60;;
45368;SDS011;51342;55.250;37.668;2023-03-01T05:55:00;2.53;;;0.60;;
45368;SDS011;51342;55.250;37.668;2023-03-01T05:57:31;3.57;;;0.70;;
45368;SDS011;51342;55.250;37.668;2023-03-01T06:00:03;2.37;;;0.60;;
45368;SDS011;51342;55.250;37.668;2023-03-01T06:02:43;3.07;;;0.63;;
45368;SDS011;51342;55.250;37.668;2023-03-01T06:05:15;2.80;;;0.93;;
45368;SDS011;51342;55.250;37.668;2023-03-01T06:07:46;4.37;;;1.83;;
45368;SDS011;51342;55.250;37.668;2023-03-01T06:10:18;5.97;;;1.63;;
45368;SDS011;51342;55.250;37.668;2023-03-01T06:12:51;5.20;;;1.80;;
45368;SDS011;51342;55.250;37.668;2023-03-01T06:15:23;4.60;;;1.93;;
45368;SDS011;51342;55.250;37.668;2023-03-01T06:17:55;5.77;;;2.10;;
45368;SDS011;51342;55.250;37.668;2023-03-01T06:20:29;8.90;;;2.07;;
45368;SDS011;51342;55.250;37.668;2023-03-01T06:23:01;3.60;;;2.03;;
45368;SDS011;51342;55.250;37.668;2023-03-01T06:25:32;3.87;;;1.60;;
45368;SDS011;51342;55.250;37.668;2023-03-01T06:28:06;3.33;;;1.30;;
45368;SDS011;51342;55.250;37.668;2023-03-01T06:30:37;6.23;;;1.67;;
45368;SDS011;51342;55.250;37.668;2023-03-01T06:33:08;3.87;;;1.70;;
45368;SDS011;51342;55.250;37.668;2023-03-01T06:35:40;3.17;;;1.93;;
45368;SDS011;51342;55.250;37.668;2023-03-01T06:38:11;5.87;;;1.83;;
45368;SDS011;51342;55.250;37.668;2023-03-01T06:40:50;4.47;;;2.37;;
45368;SDS011;51342;55.250;37.668;2023-03-01T06:43:23;6.45;;;2.80;;
45368;SDS011;51342;55.250;37.668;2023-03-01T06:45:55;8.30;;;3.20;;
45368;SDS011;51342;55.250;37.668;2023-03-01T06:48:26;6.23;;;3.03;;
45368;SDS011;51342;55.250;37.668;2023-03-01T06:50:59;7.83;;;2.60;;
45368;SDS011;51342;55.250;37.668;2023-03-01T06:53:34;5.07;;;2.70;;
45368;SDS011;51342;55.250;37.668;2023-03-01T06:56:06;6.60;;;3.20;;
45368;SDS011;51342;55.250;37.668;2023-03-01T06:58:37;7.93;;;3.00;;
45368;SDS011;51342;55.250;37.668;2023-03-01T07:01:08;7.93;;;2.67;;
45368;SDS011;51342;55.250;37.668;2023-03-01T07:03:40;7.77;;;2.20;;
45368;SDS011;51342;55.250;37.668;2023-03-01T07:06:11;5.27;;;2.50;;
45368;SDS011;51342;55.250;37.668;2023-03-01T07:08:43;10.10;;;3.20;;
45368;SDS011;51342;55.250;37.668;2023-03-01T07:11:14;8.17;;;2.97;;
45368;SDS011;51342;55.250;37.668;2023-03-01T07:13:46;8.50;;;3.07;;
45368;SDS011;51342;55.250;37.668;2023-03-01T07:16:17;8.63;;;3.47;;
45368;SDS011;51342;55.250;37.668;2023-03-01T07:18:51;11.30;;;3.30;;
45368;SDS011;51342;55.250;37.668;2023-03-01T07:21:22;9.07;;;2.73;;
45368;SDS011;51342;55.250;37.668;2023-03-01T07:23:53;9.00;;;2.70;;
45368;SDS011;51342;55.250;37.668;2023-03-01T07:26:25;6.43;;;2.13;;
45368;SDS011;51342;55.250;37.668;2023-03-01T07:28:58;5.90;;;2.47;;
45368;SDS011;51342;55.250;37.668;2023-03-01T07:31:30;9.53;;;2.87;;
45368;SDS011;51342;55.250;37.668;2023-03-01T07:34:02;4.47;;;2.57;;
45368;SDS011;51342;55.250;37.668;2023-03-01T07:36:34;5.03;;;2.20;;
45368;SDS011;51342;55.250;37.668;2023-03-01T07:39:05;7.70;;;2.60;;
45368;SDS011;51342;55.250;37.668;2023-03-01T07:41:37;4.53;;;2.03;;
45368;SDS011;51342;55.250;37.668;2023-03-01T07:44:09;6.13;;;1.80;;
45368;SDS011;51342;55.250;37.668;2023-03-01T07:46:40;5.93;;;1.70;;
45368;SDS011;51342;55.250;37.668;2023-03-01T07:49:12;3.67;;;1.33;;
45368;SDS011;51342;55.250;37.668;2023-03-01T07:51:43;4.27;;;1.60;;
45368;SDS011;51342;55.250;37.668;2023-03-01T07:54:15;4.23;;;1.37;;
45368;SDS011;51342;55.250;37.668;2023-03-01T07:56:46;4.60;;;1.30;;
45368;SDS011;51342;55.250;37.668;2023-03-01T07:59:17;3.73;;;1.47;;
45368;SDS011;51342;55.250;37.668;2023-03-01T08:01:49;3.33;;;1.27;;
45368;SDS011;51342;55.250;37.668;2023-03-01T08:04:20;4.97;;;1.20;;
45368;SDS011;51342;55.250;37.668;2023-03-01T08:06:52;4.23;;;1.00;;
45368;SDS011;51342;55.250;37.668;2023-03-01T08:09:25;3.43;;;1.30;;
45368;SDS011;51342;55.250;37.668;2023-03-01T08:11:57;4.53;;;1.30;;
45368;SDS011;51342;55.250;37.668;2023-03-01T08:14:32;3.53;;;0.80;;
45368;SDS011;51342;55.250;37.668;2023-03-01T08:17:03;3.37;;;0.90;;
45368;SDS011;51342;55.250;37.668;2023-03-01T08:19:35;2.57;;;1.20;;
45368;SDS011;51342;55.250;37.668;2023-03-01T08:22:06;2.33;;;1.20;;
45368;SDS011;51342;55.250;37.668;2023-03-01T08:24:38;3.83;;;1.40;;
45368;SDS011;51342;55.250;37.668;2023-03-01T08:27:09;2.97;;;0.97;;
45368;SDS011;51342;55.250;37.668;2023-03-01T08:29:42;4.63;;;1.00;;
45368;SDS011;51342;55.250;37.668;2023-03-01T08:32:14;5.27;;;1.40;;
45368;SDS011;51342;55.250;37.668;2023-03-01T08:34:46;5.60;;;0.97;;
45368;SDS011;51342;55.250;37.668;2023-03-01T08:37:18;3.67;;;1.13;;
45368;SDS011;51342;55.250;37.668;2023-03-01T08:39:49;3.20;;;0.87;;
45368;SDS011;51342;55.250;37.668;2023-03-01T08:42:21;3.60;;;1.10;;
45368;SDS011;51342;55.250;37.668;2023-03-01T08:44:52;3.33;;;1.10;;
45368;SDS011;51342;55.250;37.668;2023-03-01T08:47:25;3.60;;;1.20;;
45368;SDS011;51342;55.250;37.668;2023-03-01T08:49:57;4.60;;;1.63;;
45368;SDS011;51342;55.250;37.668;2023-03-01T08:52:28;6.20;;;1.73;;
45368;SDS011;51342;55.250;37.668;2023-03-01T08:55:01;2.57;;;1.30;;
45368;SDS011;51342;55.250;37.668;2023-03-01T08:57:32;3.00;;;1.30;;
45368;SDS011;51342;55.250;37.668;2023-03-01T09:00:03;6.07;;;2.23;;
45368;SDS011;51342;55.250;37.668;2023-03-01T09:02:39;8.33;;;3.70;;
45368;SDS011;51342;55.250;37.668;2023-03-01T09:05:10;4.50;;;2.20;;
45368;SDS011;51342;55.250;37.668;2023-03-01T09:07:42;4.37;;;1.70;;
45368;SDS011;51342;55.250;37.668;2023-03-01T09:10:13;4.93;;;1.70;;
45368;SDS011;51342;55.250;37.668;2023-03-01T09:12:44;3.67;;;1.20;;
45368;SDS011;51342;55.250;37.668;2023-03-01T09:15:16;2.30;;;1.40;;
45368;SDS011;51342;55.250;37.668;2023-03-01T09:17:47;3.23;;;1.00;;
45368;SDS011;51342;55.250;37.668;2023-03-01T09:20:19;2.43;;;0.90;;
45368;SDS011;51342;55.250;37.668;2023-03-01T09:22:50;4.80;;;1.33;;
45368;SDS011;51342;55.250;37.668;2023-03-01T09:25:21;2.30;;;1.20;;
45368;SDS011;51342;55.250;37.668;2023-03-01T09:27:54;3.73;;;1.30;;
45368;SDS011;51342;55.250;37.668;2023-03-01T09:30:26;2.90;;;0.87;;
45368;SDS011;51342;55.250;37.668;2023-03-01T09:32:57;3.67;;;0.90;;
45368;SDS011;51342;55.250;37.668;2023-03-01T09:35:28;4.00;;;1.03;;
45368;SDS011;51342;55.250;37.668;2023-03-01T09:38:00;3.77;;;0.93;;
45368;SDS011;51342;55.250;37.668;2023-03-01T09:40:32;2.17;;;0.70;;
45368;SDS011;51342;55.250;37.668;2023-03-01T09:43:08;4.40;;;1.10;;
45368;SDS011;51342;55.250;37.668;2023-03-01T09:45:54;1.50;;;0.70;;
45368;SDS011;51342;55.250;37.668;2023-03-01T09:48:32;1.73;;;0.70;;
45368;SDS011;51342;55.250;37.668;2023-03-01T09:51:12;5.43;;;1.00;;
45368;SDS011;51342;55.250;37.668;2023-03-01T09:53:53;2.07;;;0.80;;
45368;SDS011;51342;55.250;37.668;2023-03-01T09:56:30;4.50;;;1.13;;
45368;SDS011;51342;55.250;37.668;2023-03-01T10:01:56;2.20;;;0.90;;
45368;SDS011;51342;55.250;37.668;2023-03-01T10:04:48;4.07;;;0.97;;
45368;SDS011;51342;55.250;37.668;2023-03-01T10:07:33;3.47;;;1.37;;
45368;SDS011;51342;55.250;37.668;2023-03-01T10:10:27;3.57;;;1.10;;
45368;SDS011;51342;55.250;37.668;2023-03-01T10:13:15;4.27;;;1.00;;
45368;SDS011;51342;55.250;37.668;2023-03-01T10:15:53;3.60;;;0.82;;
45368;SDS011;51342;55.250;37.668;2023-03-01T10:21:05;3.60;;;0.70;;
45368;SDS011;51342;55.250;37.668;2023-03-01T10:23:49;3.43;;;1.00;;
45368;SDS011;51342;55.250;37.668;2023-03-01T10:26:31;2.07;;;0.97;;
45368;SDS011;51342;55.250;37.668;2023-03-01T10:29:30;3.10;;;0.67;;
45368;SDS011;51342;55.250;37.668;2023-03-01T10:32:08;1.60;;;0.60;;
45368;SDS011;51342;55.250;37.668;2023-03-01T10:34:41;2.57;;;0.67;;
45368;SDS011;51342;55.250;37.668;2023-03-01T10:37:14;2.20;;;0.70;;
45368;SDS011;51342;55.250;37.668;2023-03-01T10:39:56;2.17;;;0.87;;
45368;SDS011;51342;55.250;37.668;2023-03-01T10:42:32;1.90;;;1.00;;
45368;SDS011;51342;55.250;37.668;2023-03-01T10:45:19;2.60;;;0.70;;
45368;SDS011;51342;55.250;37.668;2023-03-01T10:48:23;1.70;;;0.60;;
45368;SDS011;51342;55.250;37.668;2023-03-01T10:56:12;2.13;;;1.23;;
45368;SDS011;51342;55.250;37.668;2023-03-01T10:58:58;3.43;;;0.73;;
45368;SDS011;51342;55.250;37.668;2023-03-01T11:01:32;2.55;;;0.60;;
45368;SDS011;51342;55.250;37.668;2023-03-01T11:06:37;3.40;;;0.83;;
45368;SDS011;51342;55.250;37.668;2023-03-01T11:09:20;2.80;;;1.17;;
45368;SDS011;51342;55.250;37.668;2023-03-01T11:11:54;2.93;;;0.90;;
45368;SDS011;51342;55.250;37.668;2023-03-01T11:14:28;2.07;;;1.00;;
45368;SDS011;51342;55.250;37.668;2023-03-01T11:22:49;2.20;;;0.60;;
45368;SDS011;51342;55.250;37.668;2023-03-01T11:25:25;2.43;;;0.90;;
45368;SDS011;51342;55.250;37.668;2023-03-01T11:28:02;2.40;;;0.68;;
45368;SDS011;51342;55.250;37.668;2023-03-01T11:33:48;4.43;;;0.80;;
45368;SDS011;51342;55.250;37.668;2023-03-01T11:42:02;2.87;;;0.73;;
45368;SDS011;51342;55.250;37.668;2023-03-01T11:44:35;1.27;;;0.53;;
45368;SDS011;51342;55.250;37.668;2023-03-01T11:50:24;2.20;;;1.10;;
45368;SDS011;51342;55.250;37.668;2023-03-01T11:56:03;2.40;;;0.80;;
45368;SDS011;51342;55.250;37.668;2023-03-01T12:10:21;3.15;;;0.80;;
45368;SDS011;51342;55.250;37.668;2023-03-01T12:15:42;0.95;;;0.50;;
45368;SDS011;51342;55.250;37.668;2023-03-01T12:37:54;2.03;;;0.60;;
45368;SDS011;51342;55.250;37.668;2023-03-01T12:43:48;2.63;;;0.57;;
45368;SDS011;51342;55.250;37.668;2023-03-01T12:46:52;2.23;;;0.40;;
45368;SDS011;51342;55.250;37.668;2023-03-01T12:55:00;1.93;;;0.50;;
45368;SDS011;51342;55.250;37.668;2023-03-01T12:57:36;1.63;;;0.60;;
45368;SDS011;51342;55.250;37.668;2023-03-01T13:00:33;2.90;;;0.70;;
45368;SDS011;51342;55.250;37.668;2023-03-01T13:08:57;3.10;;;0.70;;
45368;SDS011;51342;55.250;37.668;2023-03-01T13:11:40;2.23;;;0.60;;
45368;SDS011;51342;55.250;37.668;2023-03-01T13:16:56;3.83;;;0.70;;
45368;SDS011;51342;55.250;37.668;2023-03-01T13:19:28;2.17;;;0.57;;
45368;SDS011;51342;55.250;37.668;2023-03-01T13:22:30;1.13;;;0.50;;
45368;SDS011;51342;55.250;37.668;2023-03-01T13:25:13;1.17;;;0.50;;
45368;SDS011;51342;55.250;37.668;2023-03-01T13:27:48;3.33;;;0.80;;
45368;SDS011;51342;55.250;37.668;2023-03-01T13:36:01;2.63;;;0.67;;
45368;SDS011;51342;55.250;37.668;2023-03-01T13:38:47;1.20;;;0.50;;
45368;SDS011;51342;55.250;37.668;2023-03-01T13:44:25;2.00;;;0.70;;
45368;SDS011;51342;55.250;37.668;2023-03-01T13:49:57;2.57;;;0.50;;
45368;SDS011;51342;55.250;37.668;2023-03-01T13:52:40;1.63;;;0.30;;
45368;SDS011;51342;55.250;37.668;2023-03-01T13:57:49;3.37;;;0.70;;
45368;SDS011;51342;55.250;37.668;2023-03-01T14:00:35;3.10;;;0.90;;
45368;SDS011;51342;55.250;37.668;2023-03-01T14:03:13;3.77;;;0.40;;
45368;SDS011;51342;55.250;37.668;2023-03-01T14:15:02;2.83;;;0.40;;
45368;SDS011;51342;55.250;37.668;2023-03-01T14:17:46;2.53;;;0.37;;
45368;SDS011;51342;55.250;37.668;2023-03-01T14:20:27;3.70;;;0.77;;
45368;SDS011;51342;55.250;37.668;2023-03-01T14:23:02;2.63;;;0.40;;
45368;SDS011;51342;55.250;37.668;2023-03-01T14:25:50;2.10;;;0.50;;
45368;SDS011;51342;55.250;37.668;2023-03-01T14:28:27;1.57;;;0.50;;
45368;SDS011;51342;55.250;37.668;2023-03-01T14:34:18;2.03;;;0.40;;
45368;SDS011;51342;55.250;37.668;2023-03-01T14:36:51;0.80;;;0.40;;
45368;SDS011;51342;55.250;37.668;2023-03-01T14:39:24;0.93;;;0.30;;
45368;SDS011;51342;55.250;37.668;2023-03-01T14:41:57;2.00;;;0.50;;
45368;SDS011;51342;55.250;37.668;2023-03-01T14:44:29;1.93;;;0.83;;
45368;SDS011;51342;55.250;37.668;2023-03-01T14:47:02;2.37;;;0.30;;
45368;SDS011;51342;55.250;37.668;2023-03-01T14:49:34;3.50;;;0.57;;
45368;SDS011;51342;55.250;37.668;2023-03-01T14:52:18;3.13;;;0.50;;
45368;SDS011;51342;55.250;37.668;2023-03-01T14:54:52;1.33;;;0.50;;
45368;SDS011;51342;55.250;37.668;2023-03-01T14:57:25;2.60;;;0.33;;
45368;SDS011;51342;55.250;37.668;2023-03-01T14:59:58;3.10;;;0.50;;
45368;SDS011;51342;55.250;37.668;2023-03-01T15:02:33;2.13;;;0.60;;
45368;SDS011;51342;55.250;37.668;2023-03-01T15:05:06;2.80;;;0.50;;
45368;SDS011;51342;55.250;37.668;2023-03-01T15:07:40;2.53;;;0.43;;
45368;SDS011;51342;55.250;37.668;2023-03-01T15:10:23;1.60;;;0.50;;
45368;SDS011;51342;55.250;37.668;2023-03-01T15:13:09;1.75;;;0.60;;
45368;SDS011;51342;55.250;37.668;2023-03-01T15:15:45;2.33;;;0.50;;
45368;SDS011;51342;55.250;37.668;2023-03-01T15:18:22;1.23;;;0.30;;
45368;SDS011;51342;55.250;37.668;2023-03-01T15:21:08;1.07;;;0.40;;
45368;SDS011;51342;55.250;37.668;2023-03-01T15:23:55;1.40;;;0.53;;
45368;SDS011;51342;55.250;37.668;2023-03-01T15:26:37;2.50;;;0.60;;
45368;SDS011;51342;55.250;37.668;2023-03-01T15:29:15;2.70;;;0.50;;
45368;SDS011;51342;55.250;37.668;2023-03-01T15:32:04;1.55;;;0.70;;
45368;SDS011;51342;55.250;37.668;2023-03-01T15:34:37;2.00;;;0.63;;
45368;SDS011;51342;55.250;37.668;2023-03-01T15:40:18;1.33;;;0.50;;
45368;SDS011;51342;55.250;37.668;2023-03-01T15:45:57;2.83;;;0.40;;
45368;SDS011;51342;55.250;37.668;2023-03-01T15:48:29;1.50;;;0.57;;
45368;SDS011;51342;55.250;37.668;2023-03-01T15:51:00;2.03;;;0.60;;
45368;SDS011;51342;55.250;37.668;2023-03-01T15:53:32;1.50;;;0.40;;
45368;SDS011;51342;55.250;37.668;2023-03-01T15:56:03;2.50;;;0.50;;
45368;SDS011;51342;55.250;37.668;2023-03-01T15:58:38;2.93;;;0.70;;
45368;SDS011;51342;55.250;37.668;2023-03-01T16:01:13;2.53;;;0.60;;
45368;SDS011;51342;55.250;37.668;2023-03-01T16:03:45;1.37;;;0.47;;
45368;SDS011;51342;55.250;37.668;2023-03-01T16:06:17;1.20;;;0.53;;
45368;SDS011;51342;55.250;37.668;2023-03-01T16:08:48;2.17;;;0.77;;
45368;SDS011;51342;55.250;37.668;2023-03-01T16:11:20;1.80;;;0.70;;
45368;SDS011;51342;55.250;37.668;2023-03-01T16:13:52;2.83;;;0.80;;
45368;SDS011;51342;55.250;37.668;2023-03-01T16:16:23;2.53;;;0.80;;
45368;SDS011;51342;55.250;37.668;2023-03-01T16:18:55;2.83;;;0.80;;
45368;SDS011;51342;55.250;37.668;2023-03-01T16:21:26;2.90;;;0.60;;
45368;SDS011;51342;55.250;37.668;2023-03-01T16:23:58;1.33;;;0.50;;
45368;SDS011;51342;55.250;37.668;2023-03-01T16:26:29;1.03;;;0.50;;
45368;SDS011;51342;55.250;37.668;2023-03-01T16:29:00;1.77;;;0.80;;
45368;SDS011;51342;55.250;37.668;2023-03-01T16:31:32;0.93;;;0.40;;
45368;SDS011;51342;55.250;37.668;2023-03-01T16:34:03;2.80;;;0.67;;
45368;SDS011;51342;55.250;37.668;2023-03-01T16:36:34;2.63;;;0.60;;
45368;SDS011;51342;55.250;37.668;2023-03-01T16:39:08;2.27;;;0.50;;
45368;SDS011;51342;55.250;37.668;2023-03-01T16:41:40;1.33;;;0.40;;
45368;SDS011;51342;55.250;37.668;2023-03-01T16:44:11;2.10;;;0.63;;
45368;SDS011;51342;55.250;37.668;2023-03-01T16:46:42;1.97;;;0.40;;
45368;SDS011;51342;55.250;37.668;2023-03-01T16:49:14;0.73;;;0.40;;
45368;SDS011;51342;55.250;37.668;2023-03-01T16:51:45;4.30;;;0.90;;
45368;SDS011;51342;55.250;37.668;2023-03-01T16:54:17;1.90;;;0.77;;
45368;SDS011;51342;55.250;37.668;2023-03-01T16:56:48;3.43;;;0.77;;
45368;SDS011;51342;55.250;37.668;2023-03-01T16:59:20;2.43;;;0.93;;
45368;SDS011;51342;55.250;37.668;2023-03-01T17:01:51;2.37;;;0.60;;
45368;SDS011;51342;55.250;37.668;2023-03-01T17:04:23;2.57;;;1.10;;
45368;SDS011;51342;55.250;37.668;2023-03-01T17:06:55;2.00;;;0.87;;
45368;SDS011;51342;55.250;37.668;2023-03-01T17:09:26;2.73;;;0.70;;
45368;SDS011;51342;55.250;37.668;2023-03-01T17:11:57;3.63;;;0.67;;
45368;SDS011;51342;55.250;37.668;2023-03-01T17:14:29;7.27;;;0.90;;
45368;SDS011;51342;55.250;37.668;2023-03-01T17:17:00;3.20;;;0.87;;
45368;SDS011;51342;55.250;37.668;2023-03-01T17:19:33;2.90;;;0.80;;
45368;SDS011;51342;55.250;37.668;2023-03-01T17:22:06;3.20;;;0.70;;
45368;SDS011;51342;55.250;37.668;2023-03-01T17:24:38;4.57;;;0.67;;
45368;SDS011;51342;55.250;37.668;2023-03-01T17:27:11;3.80;;;0.60;;
45368;SDS011;51342;55.250;37.668;2023-03-01T17:29:43;1.63;;;0.40;;
45368;SDS011;51342;55.250;37.668;2023-03-01T17:32:14;2.37;;;0.50;;
45368;SDS011;51342;55.250;37.668;2023-03-01T17:34:46;1.60;;;0.50;;
45368;SDS011;51342;55.250;37.668;2023-03-01T17:37:17;1.33;;;0.40;;
45368;SDS011;51342;55.250;37.668;2023-03-01T17:39:49;2.57;;;0.57;;
45368;SDS011;51342;55.250;37.668;2023-03-01T17:42:20;2.70;;;0.70;;
45368;SDS011;51342;55.250;37.668;2023-03-01T17:44:51;3.00;;;0.70;;
45368;SDS011;51342;55.250;37.668;2023-03-01T17:47:23;2.67;;;0.80;;
45368;SDS011;51342;55.250;37.668;2023-03-01T17:49:54;2.40;;;0.70;;